Airfield :
LOGIN :

Register | Disclaimer

   EN    FR    IT 

 










Legend :    VFR   Marginal VFR   IFR   Intensive IFR   Very Intensive IFR
Visi :
Ceiling :
>= 8 km
>= 3000ft
5 to 8 km
1000 to 3000 ft
1500m to 5 km
500 to 1000 ft
800 to 1500m
200 to 500 ft
< 800m
< 200 ft
Symbols :   Thunderstorms  Fog  Heavy snow  Heavy precipitations  Wind > 20 kt
SIGMETs :     Misc.  Thunderstorms  Icing  Turbulence  Mountain Waves  Volcanic Ashes






- Airport Elevation : 1516 ft
- IATA code : AGB


EDMA - Augsburg

CURRENT METAR :
  • 190420Z AUTO VRB02KT 9999 // NCD 14/14 Q1021

EXPIRED METARs :
  • 190350Z AUTO 13002KT 9999 // NCD 14/13 Q1021
  • 190320Z AUTO VRB01KT 9999 // NCD 14/13 Q1021
  • 190250Z AUTO VRB01KT 9999 // NCD 14/14 Q1021
  • 190220Z AUTO 00000KT 9999 // NCD 14/14 Q1021
  • 190150Z AUTO 06001KT 9999 // NCD 15/14 Q1021
  • 190120Z AUTO 07002KT 9999 // NCD 15/15 Q1021
  • 190050Z AUTO 00000KT 9999 // NCD 15/14 Q1021
  • 190020Z AUTO 00000KT 9999 // NCD 17/16 Q1021
  • 182350Z AUTO VRB01KT 9999 // FEW130/// 17/15 Q1021

Expired Forecast.



MET'MAP, your aeronautical weather chart ! - Copyright ORBIFLY December 2007 - Disclaimer

ORBIFLY MET'MAP TEAM :

Programming & Development : Alexandra Zaïnal
Original concept : Baudouin d'Aumeries
Technical & hardware support : Manuel Goepfert
Assistance : Marc-Olivier Méhu




SOURCES & CREDITS :

   NOAA